Time;durP1;ratioP1;P1;durP2;ratioP2;P2;SDS_P1;SDS_P2;PMS_P1;PMS_P2;Temp;Humidity;BMP_temperature;BMP_pressure;BME280_temperature;BME280_humidity;BME280_pressure;Samples;Min_cycle;Max_cycle;Signal;HPM_P1;HPM_P2
2022/04/17 00:01:36;;;;;;;136.13;70.20;;;4.20;1.00;;;;;;5055858;28;20447;-82
2022/04/17 00:04:02;;;;;;;111.40;64.50;;;4.10;1.00;;;;;;5037855;28;20454;-83
2022/04/17 00:06:28;;;;;;;138.33;69.10;;;4.00;1.00;;;;;;5037508;28;20466;-81
2022/04/17 00:08:53;;;;;;;151.70;81.30;;;4.10;26.00;;;;;;5055682;28;20897;-83
2022/04/17 00:11:19;;;;;;;126.63;63.10;;;4.10;41.50;;;;;;5055525;28;20634;-82
2022/04/17 00:13:44;;;;;;;89.00;54.53;;;4.10;45.80;;;;;;5055793;28;20180;-82
2022/04/17 00:16:10;;;;;;;112.73;62.23;;;4.40;26.20;;;;;;5055771;28;20285;-82
2022/04/17 00:18:36;;;;;;;90.63;55.70;;;4.70;1.00;;;;;;5055846;28;20201;-84
2022/04/17 00:21:06;;;;;;;46.03;31.10;;;4.60;1.00;;;;;;5056223;28;20408;-83
2022/04/17 00:23:33;;;;;;;76.93;47.70;;;4.70;1.00;;;;;;5055136;28;20913;-84
2022/04/17 00:25:59;;;;;;;59.37;37.87;;;4.90;1.00;;;;;;5037435;28;20558;-83
2022/04/17 00:28:24;;;;;;;69.30;43.27;;;4.70;1.00;;;;;;5037489;28;20500;-82
2022/04/17 00:30:50;;;;;;;48.20;34.77;;;4.60;1.00;;;;;;5055300;28;20178;-83
2022/04/17 00:33:15;;;;;;;73.07;43.93;;;4.60;1.00;;;;;;5055380;28;20654;-81
2022/04/17 00:35:43;;;;;;;58.53;38.03;;;4.60;1.00;;;;;;5055197;28;20257;-82
2022/04/17 00:38:08;;;;;;;49.30;35.47;;;4.30;1.00;;;;;;5054845;28;20217;-83
2022/04/17 00:40:34;;;;;;;53.20;37.83;;;4.00;18.10;;;;;;5055161;28;20423;-83
2022/04/17 00:42:59;;;;;;;57.00;38.10;;;3.90;59.80;;;;;;5054586;28;20173;-82
2022/04/17 00:45:25;;;;;;;59.10;38.60;;;3.80;61.70;;;;;;5116168;22;20271;-83
2022/04/17 00:47:51;;;;;;;86.97;50.30;;;3.70;86.80;;;;;;5069425;28;20181;-85
2022/04/17 00:50:22;;;;;;;106.47;55.87;;;3.60;99.90;;;;;;5074763;28;20930;-83
2022/04/17 00:52:48;;;;;;;100.77;53.20;;;3.60;99.90;;;;;;5074462;28;20201;-82
2022/04/17 00:55:34;;;;;;;121.73;60.83;;;3.50;99.90;;;;;;5056628;28;20973;-84
2022/04/17 00:58:00;;;;;;;103.33;57.00;;;3.50;99.90;;;;;;5073998;28;20353;-82
2022/04/17 01:00:26;;;;;;;91.53;51.97;;;3.50;99.90;;;;;;5074446;28;20454;-82
2022/04/17 01:02:52;;;;;;;89.87;43.80;;;3.50;99.90;;;;;;5056459;28;20459;-82
2022/04/17 01:05:19;;;;;;;83.73;44.23;;;3.50;99.90;;;;;;5056541;28;20184;-82
2022/04/17 01:07:45;;;;;;;67.93;41.70;;;3.40;99.90;;;;;;5057665;28;20645;-81
2022/04/17 01:10:11;;;;;;;59.43;35.40;;;3.40;99.90;;;;;;5054305;28;20416;-82
2022/04/17 01:12:37;;;;;;;46.70;30.30;;;3.30;99.90;;;;;;5054273;28;20750;-81
2022/04/17 01:15:03;;;;;;;48.77;29.80;;;3.30;99.90;;;;;;5054177;28;20170;-83
2022/04/17 01:17:28;;;;;;;38.53;27.87;;;3.20;99.90;;;;;;5054112;28;20216;-84
2022/04/17 01:19:54;;;;;;;38.97;25.37;;;3.20;99.90;;;;;;5019635;28;20416;-82
2022/04/17 01:22:20;;;;;;;35.53;25.07;;;3.30;99.90;;;;;;5053968;28;20635;-81
2022/04/17 01:27:30;;;;;;;38.37;25.83;;;3.20;99.90;;;;;;5074094;28;20203;-84
2022/04/17 01:29:56;;;;;;;39.77;29.07;;;3.10;99.90;;;;;;5056145;28;20429;-85
2022/04/17 01:32:22;;;;;;;41.27;28.13;;;3.10;99.90;;;;;;5073991;28;20414;-82
2022/04/17 01:34:48;;;;;;;37.97;26.77;;;3.10;99.90;;;;;;5073791;28;20164;-84
2022/04/17 01:37:14;;;;;;;41.13;28.40;;;3.10;99.90;;;;;;5073407;28;20974;-82
2022/04/17 01:39:40;;;;;;;38.63;27.50;;;3.10;99.90;;;;;;5073744;28;20502;-81
2022/04/17 01:42:06;;;;;;;40.43;29.03;;;3.00;99.90;;;;;;5073594;28;20897;-81
2022/04/17 01:44:32;;;;;;;35.47;26.43;;;3.00;99.90;;;;;;5073542;28;20755;-85
2022/04/17 01:46:58;;;;;;;34.83;27.80;;;2.90;99.90;;;;;;5073573;28;20664;-83
2022/04/17 01:49:23;;;;;;;43.10;26.10;;;2.90;99.90;;;;;;5073468;28;20415;-81
2022/04/17 01:51:51;;;;;;;40.23;26.50;;;2.90;99.90;;;;;;5073148;28;20424;-82
2022/04/17 01:54:25;;;;;;;37.00;26.50;;;2.90;99.90;;;;;;5073463;28;20169;-82
2022/04/17 01:56:51;;;;;;;46.90;28.37;;;2.80;99.90;;;;;;5073382;28;20462;-83
2022/04/17 01:59:18;;;;;;;39.37;25.93;;;2.80;99.90;;;;;;5073301;28;20427;-81
2022/04/17 02:01:44;;;;;;;43.53;29.40;;;2.70;99.90;;;;;;5073359;28;20405;-81
2022/04/17 02:04:10;;;;;;;39.90;29.77;;;2.70;99.90;;;;;;5073306;28;20484;-84
2022/04/17 02:06:40;;;;;;;38.40;26.33;;;2.60;99.90;;;;;;5054882;28;20410;-80
2022/04/17 02:09:08;;;;;;;41.87;30.20;;;2.60;99.90;;;;;;5072541;28;20426;-82
2022/04/17 02:11:33;;;;;;;47.63;30.57;;;2.60;99.90;;;;;;5073123;28;20415;-81
2022/04/17 02:13:59;;;;;;;48.30;32.53;;;2.60;99.90;;;;;;5073170;28;20909;-84
2022/04/17 02:16:25;;;;;;;52.93;35.50;;;2.70;99.90;;;;;;5072911;28;20248;-83
2022/04/17 02:18:52;;;;;;;45.60;31.37;;;2.60;99.90;;;;;;5072948;28;20905;-82
2022/04/17 02:21:18;;;;;;;47.20;33.37;;;2.60;99.90;;;;;;5072633;28;20192;-82
2022/04/17 02:23:45;;;;;;;54.07;32.90;;;2.60;99.90;;;;;;5073096;28;20412;-83
2022/04/17 02:26:12;;;;;;;48.70;33.30;;;2.50;99.90;;;;;;5072985;28;20413;-83
2022/04/17 02:28:40;;;;;;;46.93;31.63;;;2.50;99.90;;;;;;5072869;28;20411;-82
2022/04/17 02:31:06;;;;;;;41.63;31.07;;;2.40;99.90;;;;;;5072278;28;20415;-82
2022/04/17 02:33:32;;;;;;;48.20;33.70;;;2.30;99.90;;;;;;5072900;28;20499;-82
2022/04/17 02:36:01;;;;;;;51.17;33.10;;;2.30;99.90;;;;;;5072381;28;20438;-86
2022/04/17 02:38:36;;;;;;;44.00;31.53;;;2.40;99.90;;;;;;5072768;28;20474;-81
2022/04/17 02:41:02;;;;;;;43.03;30.00;;;2.30;99.90;;;;;;5072843;28;20410;-81
2022/04/17 02:43:27;;;;;;;44.97;32.67;;;2.30;99.90;;;;;;5072689;28;20753;-81
2022/04/17 02:45:56;;;;;;;46.97;32.10;;;2.30;99.90;;;;;;5072589;28;21016;-81
2022/04/17 02:48:22;;;;;;;48.23;30.23;;;2.30;99.90;;;;;;5072809;28;20168;-80
2022/04/17 02:50:47;;;;;;;45.70;30.00;;;2.30;99.90;;;;;;5072707;28;20407;-82
2022/04/17 02:53:17;;;;;;;40.63;28.97;;;2.20;99.90;;;;;;5072238;28;20403;-83
2022/04/17 02:55:43;;;;;;;42.83;29.60;;;2.20;99.90;;;;;;5054524;28;20665;-82
2022/04/17 02:58:10;;;;;;;40.77;29.00;;;2.20;99.90;;;;;;5072619;28;20438;-83
2022/04/17 03:05:36;;;;;;;42.50;26.50;;;2.10;99.90;;;;;;5072613;28;20799;-81
2022/04/17 03:06:09;;;;;;;48.07;28.70;;;2.00;99.90;;;;;;5072488;28;20410;-81
2022/04/17 03:08:36;;;;;;;40.00;25.50;;;1.90;99.90;;;;;;5072563;28;20406;-82
2022/04/17 03:11:02;;;;;;;42.53;29.03;;;1.80;99.90;;;;;;5072501;28;20510;-82
2022/04/17 03:13:27;;;;;;;42.67;30.77;;;1.80;99.90;;;;;;5072415;28;20962;-82
2022/04/17 03:15:53;;;;;;;39.87;27.67;;;2.00;99.90;;;;;;5038002;28;20195;-83
2022/04/17 03:18:18;;;;;;;41.33;29.53;;;1.90;99.90;;;;;;5072374;28;20622;-82
2022/04/17 03:20:44;;;;;;;44.10;29.50;;;1.90;99.90;;;;;;5058546;28;20260;-84
2022/04/17 03:23:09;;;;;;;41.97;27.87;;;1.80;99.90;;;;;;5076558;28;20177;-85
2022/04/17 03:25:35;;;;;;;42.70;28.23;;;1.70;99.90;;;;;;5058781;28;20173;-84
2022/04/17 03:28:01;;;;;;;44.00;30.20;;;1.70;99.90;;;;;;5076679;28;20224;-82
2022/04/17 03:30:26;;;;;;;39.07;28.40;;;1.60;99.90;;;;;;5058987;28;20171;-83
2022/04/17 03:32:52;;;;;;;39.07;30.00;;;1.60;99.90;;;;;;5058792;28;20422;-84
2022/04/17 03:35:19;;;;;;;42.60;32.33;;;1.60;99.90;;;;;;5076817;28;20187;-85
2022/04/17 03:37:45;;;;;;;43.90;29.20;;;1.70;99.90;;;;;;5058120;28;20982;-86
2022/04/17 03:40:12;;;;;;;46.87;32.33;;;1.60;99.90;;;;;;5058777;28;20426;-86
2022/04/17 03:42:38;;;;;;;47.23;33.30;;;1.60;99.90;;;;;;5076652;28;20445;-83
2022/04/17 03:45:08;;;;;;;49.87;32.50;;;1.50;99.90;;;;;;5076467;28;20462;-84
2022/04/17 03:47:35;;;;;;;47.43;32.20;;;1.50;99.90;;;;;;5076591;28;20496;-88
2022/04/17 03:50:01;;;;;;;49.50;30.57;;;1.40;99.90;;;;;;5076642;28;20897;-85
2022/04/17 03:52:26;;;;;;;55.97;36.70;;;1.40;99.90;;;;;;5075982;28;20418;-83
2022/04/17 03:54:52;;;;;;;61.87;42.97;;;1.50;99.90;;;;;;5058418;28;20194;-83
2022/04/17 03:57:17;;;;;;;62.90;42.50;;;1.50;99.90;;;;;;5076340;28;20463;-88
2022/04/17 03:59:43;;;;;;;71.33;45.43;;;1.40;99.90;;;;;;5076188;28;20234;-88
2022/04/17 04:02:08;;;;;;;76.50;45.40;;;1.30;99.90;;;;;;5076455;28;20677;-87
2022/04/17 04:04:34;;;;;;;73.20;47.70;;;1.30;99.90;;;;;;5076099;28;20228;-83
2022/04/17 04:07:02;;;;;;;73.00;49.57;;;1.30;99.90;;;;;;5058254;28;20528;-87
2022/04/17 04:09:27;;;;;;;74.40;50.53;;;1.40;99.90;;;;;;5076470;28;20217;-85
2022/04/17 04:11:53;;;;;;;72.70;47.37;;;1.30;99.90;;;;;;5076381;28;20506;-85
2022/04/17 04:14:18;;;;;;;70.43;47.47;;;1.30;99.90;;;;;;5076406;28;20169;-85
2022/04/17 04:16:44;;;;;;;61.13;43.30;;;1.30;99.90;;;;;;5076210;28;20247;-87
2022/04/17 04:19:10;;;;;;;66.93;43.83;;;1.30;99.90;;;;;;5076203;28;20255;-88
2022/04/17 04:21:47;;;;;;;66.67;42.17;;;1.30;99.90;;;;;;5075843;28;20808;-87
2022/04/17 04:24:17;;;;;;;55.97;38.80;;;1.30;99.90;;;;;;5075624;28;20450;-82
2022/04/17 04:26:43;;;;;;;55.30;37.30;;;1.20;99.90;;;;;;5075283;28;20772;-80
2022/04/17 04:29:08;;;;;;;57.50;38.27;;;1.30;99.90;;;;;;5075208;28;20418;-83
2022/04/17 04:31:34;;;;;;;60.57;37.50;;;1.20;99.90;;;;;;5074570;28;20403;-82
2022/04/17 04:34:00;;;;;;;48.97;35.10;;;1.20;99.90;;;;;;5075423;28;20726;-82
2022/04/17 04:36:28;;;;;;;47.47;32.43;;;1.30;99.90;;;;;;5075506;28;20296;-83
2022/04/17 04:38:53;;;;;;;49.30;31.77;;;1.30;99.90;;;;;;5075056;28;20187;-81
2022/04/17 04:41:18;;;;;;;44.57;30.10;;;1.30;99.90;;;;;;5056871;28;20788;-82
2022/04/17 04:43:44;;;;;;;43.10;31.23;;;1.30;99.90;;;;;;5074879;28;20174;-82
2022/04/17 04:46:09;;;;;;;47.00;32.27;;;1.30;99.90;;;;;;5074814;28;20212;-81
2022/04/17 04:51:25;;;;;;;42.27;28.63;;;1.40;99.90;;;;;;5059604;28;20194;-81
2022/04/17 04:53:51;;;;;;;38.97;28.60;;;1.40;99.90;;;;;;5074807;28;20412;-81
2022/04/17 04:56:17;;;;;;;31.30;24.27;;;1.40;99.90;;;;;;5056830;28;20562;-82
2022/04/17 04:58:44;;;;;;;29.33;21.60;;;1.50;99.90;;;;;;5056697;28;20574;-81
2022/04/17 05:01:09;;;;;;;31.17;23.43;;;1.50;99.90;;;;;;5074481;28;20454;-81
2022/04/17 05:03:35;;;;;;;35.83;21.70;;;1.60;99.90;;;;;;5074484;28;20451;-83
2022/04/17 05:06:04;;;;;;;28.13;22.87;;;1.60;99.90;;;;;;5074174;28;20168;-82
2022/04/17 05:08:29;;;;;;;31.93;21.40;;;1.70;99.90;;;;;;5074446;28;20173;-80
2022/04/17 05:10:55;;;;;;;32.50;22.13;;;1.80;99.90;;;;;;5074367;28;20513;-80
2022/04/17 05:13:21;;;;;;;26.13;22.33;;;1.90;99.90;;;;;;5074293;28;20637;-81
2022/04/17 05:15:46;;;;;;;30.30;21.80;;;2.10;99.90;;;;;;5074270;28;20177;-83
2022/04/17 05:18:12;;;;;;;31.67;23.63;;;2.20;99.90;;;;;;5074146;28;20177;-81
2022/04/17 05:20:40;;;;;;;27.03;21.30;;;2.30;99.90;;;;;;5073871;28;20248;-84
2022/04/17 05:23:28;;;;;;;30.90;22.50;;;2.50;99.90;;;;;;5074088;28;20260;-84
2022/04/17 05:25:56;;;;;;;27.83;22.50;;;2.90;99.90;;;;;;5074009;28;20502;-81
2022/04/17 05:28:22;;;;;;;34.20;23.30;;;3.20;99.90;;;;;;5073932;28;20920;-85
2022/04/17 05:30:48;;;;;;;28.97;23.30;;;3.60;99.90;;;;;;5073898;28;20930;-82
2022/04/17 05:33:18;;;;;;;32.20;21.93;;;4.10;99.90;;;;;;5073824;28;20423;-84
2022/04/17 05:35:43;;;;;;;26.57;22.80;;;4.80;99.90;;;;;;5073343;28;20420;-85
2022/04/17 05:38:09;;;;;;;20.70;16.60;;;4.70;20.70;;;;;;5073662;28;20982;-86
2022/04/17 05:40:37;;;;;;;20.80;16.00;;;5.40;1.00;;;;;;5073640;28;20177;-81
2022/04/17 05:43:03;;;;;;;19.20;15.17;;;6.00;1.00;;;;;;5072747;28;20168;-81
2022/04/17 05:45:30;;;;;;;28.80;16.23;;;6.00;7.10;;;;;;5073373;28;20520;-80
2022/04/17 05:47:56;;;;;;;23.10;15.53;;;6.60;99.90;;;;;;5073584;28;20429;-81
2022/04/17 05:50:22;;;;;;;24.40;16.17;;;7.00;1.00;;;;;;5072340;28;20465;-80
2022/04/17 05:52:48;;;;;;;29.97;16.90;;;7.40;1.00;;;;;;5073390;28;20502;-80
2022/04/17 05:55:15;;;;;;;26.83;18.77;;;8.30;99.90;;;;;;5073726;28;20762;-80
2022/04/17 05:57:41;;;;;;;29.97;19.27;;;8.80;99.90;;;;;;5073712;28;20214;-81
2022/04/17 06:00:09;;;;;;;28.73;18.40;;;9.30;99.90;;;;;;5073564;28;21173;-81
2022/04/17 06:02:35;;;;;;;24.40;16.73;;;10.20;99.90;;;;;;5073423;28;20422;-81
2022/04/17 06:05:03;;;;;;;23.93;16.20;;;10.00;99.90;;;;;;5073654;28;20507;-82
2022/04/17 06:07:29;;;;;;;21.57;18.27;;;10.70;99.90;;;;;;5087821;28;20415;-83
2022/04/17 06:10:06;;;;;;;24.20;16.07;;;11.50;98.50;;;;;;5078198;28;20445;-82
2022/04/17 06:12:32;;;;;;;20.63;15.70;;;11.70;59.70;;;;;;5079862;28;20172;-85
2022/04/17 06:14:57;;;;;;;18.27;15.40;;;11.10;36.90;;;;;;5082774;28;20414;-83
2022/04/17 06:17:23;;;;;;;19.10;14.27;;;12.40;34.00;;;;;;5074881;28;20958;-83
2022/04/17 06:19:48;;;;;;;20.30;16.00;;;13.10;17.90;;;;;;5073180;28;20173;-83
2022/04/17 06:22:14;;;;;;;25.50;17.87;;;13.40;12.10;;;;;;5073049;28;20593;-83
2022/04/17 06:24:39;;;;;;;22.97;18.23;;;14.20;5.50;;;;;;5073293;28;20179;-82
2022/04/17 06:27:05;;;;;;;20.57;16.87;;;14.20;1.00;;;;;;5073284;28;20175;-82
2022/04/17 06:29:31;;;;;;;23.90;16.73;;;14.10;1.00;;;;;;5073192;28;20174;-83
2022/04/17 06:31:57;;;;;;;23.80;17.90;;;14.40;1.00;;;;;;5073342;28;20785;-83
2022/04/17 06:34:23;;;;;;;21.83;15.90;;;14.50;1.00;;;;;;5072945;28;20504;-82
2022/04/17 06:36:48;;;;;;;16.93;15.20;;;14.30;1.00;;;;;;5072622;28;20208;-83
2022/04/17 06:39:14;;;;;;;17.97;15.30;;;13.20;1.00;;;;;;5073066;28;20184;-82
2022/04/17 06:41:46;;;;;;;24.00;15.40;;;13.00;1.00;;;;;;5073144;28;20179;-83
2022/04/17 06:44:12;;;;;;;24.27;17.20;;;14.10;1.00;;;;;;5073089;28;20640;-82
2022/04/17 06:46:38;;;;;;;20.03;13.57;;;14.80;1.00;;;;;;5073162;28;20927;-82
2022/04/17 06:49:06;;;;;;;20.37;14.60;;;14.70;1.00;;;;;;5073193;28;20419;-82
2022/04/17 06:51:31;;;;;;;21.33;15.50;;;14.90;1.00;;;;;;5073247;28;20419;-82
2022/04/17 06:53:57;;;;;;;18.60;14.00;;;15.00;1.00;;;;;;5055464;28;20915;-83
2022/04/17 06:56:22;;;;;;;17.27;11.40;;;15.90;1.00;;;;;;5073378;28;20209;-82
2022/04/17 06:58:48;;;;;;;15.57;11.40;;;15.80;1.00;;;;;;5072962;28;20601;-83
2022/04/17 07:01:15;;;;;;;19.30;13.93;;;16.00;1.00;;;;;;5073105;28;20717;-82
2022/04/17 07:03:41;;;;;;;22.00;13.27;;;16.60;1.00;;;;;;5072901;28;20493;-82
2022/04/17 07:06:07;;;;;;;15.60;12.33;;;16.40;1.00;;;;;;5072463;28;20451;-82
2022/04/17 07:08:32;;;;;;;15.57;10.50;;;17.10;1.00;;;;;;5072778;28;20410;-82
2022/04/17 07:10:58;;;;;;;16.83;10.77;;;17.00;1.00;;;;;;5072782;28;20641;-82
2022/04/17 07:13:23;;;;;;;13.30;10.57;;;17.40;1.00;;;;;;5072799;28;20171;-83
2022/04/17 07:15:49;;;;;;;9.70;8.57;;;17.40;1.00;;;;;;5072758;28;20176;-83
2022/04/17 07:18:14;;;;;;;11.80;8.10;;;17.60;1.00;;;;;;5072723;28;20805;-85
2022/04/17 07:20:40;;;;;;;14.43;7.40;;;18.20;1.00;;;;;;5072240;28;20195;-82
2022/04/17 07:23:06;;;;;;;8.20;7.30;;;17.90;1.00;;;;;;5072733;28;20180;-84
2022/04/17 07:25:32;;;;;;;7.17;6.47;;;18.00;1.00;;;;;;5072611;28;20421;-83
2022/04/17 07:27:58;;;;;;;9.77;8.10;;;17.50;1.00;;;;;;5072515;28;20165;-83
2022/04/17 07:30:30;;;;;;;9.20;7.30;;;18.20;1.00;;;;;;5072745;28;20880;-84
2022/04/17 07:32:58;;;;;;;6.90;5.47;;;19.00;1.00;;;;;;5072648;28;20177;-83
2022/04/17 07:35:25;;;;;;;7.50;4.63;;;18.40;1.00;;;;;;5072187;28;20423;-82
2022/04/17 07:37:52;;;;;;;3.93;3.20;;;18.90;1.00;;;;;;5072419;28;20602;-84
2022/04/17 07:40:21;;;;;;;5.60;3.37;;;18.20;1.00;;;;;;5072539;28;20412;-83
2022/04/17 07:42:50;;;;;;;4.17;3.20;;;17.80;1.00;;;;;;5072568;28;20511;-84
2022/04/17 07:45:15;;;;;;;5.70;3.93;;;17.80;1.00;;;;;;5053987;28;20470;-84
2022/04/17 07:47:42;;;;;;;5.30;4.10;;;17.60;1.00;;;;;;5072013;28;20506;-84
2022/04/17 07:50:09;;;;;;;4.40;3.47;;;17.60;1.00;;;;;;5072078;28;20479;-85
2022/04/17 07:52:35;;;;;;;3.17;1.97;;;17.60;1.00;;;;;;5054404;28;20828;-81
2022/04/17 07:55:03;;;;;;;3.80;3.33;;;17.30;1.00;;;;;;5072335;28;20427;-85
2022/04/17 07:57:30;;;;;;;4.80;3.23;;;18.00;1.00;;;;;;5072175;28;20477;-80
2022/04/17 07:59:56;;;;;;;3.40;2.40;;;18.20;1.00;;;;;;5072324;28;20477;-83
2022/04/17 08:02:22;;;;;;;3.23;2.17;;;18.70;1.00;;;;;;5072401;28;20817;-86
2022/04/17 08:04:50;;;;;;;4.37;3.33;;;17.60;1.00;;;;;;5054275;28;20182;-87
2022/04/17 08:07:16;;;;;;;4.43;3.43;;;18.10;1.00;;;;;;5075116;28;20422;-89
2022/04/17 08:09:41;;;;;;;5.10;3.60;;;19.50;1.00;;;;;;5076077;28;20448;-81
2022/04/17 08:12:07;;;;;;;6.93;3.40;;;19.10;1.00;;;;;;5075900;28;20168;-82
2022/04/17 08:14:32;;;;;;;5.30;3.60;;;21.00;1.00;;;;;;5075811;28;20166;-82
2022/04/17 08:17:01;;;;;;;5.10;3.83;;;21.40;1.00;;;;;;5058145;28;20199;-81
2022/04/17 08:19:29;;;;;;;4.90;3.70;;;20.00;1.00;;;;;;5075848;28;20633;-82
2022/04/17 08:21:55;;;;;;;5.00;2.93;;;20.00;1.00;;;;;;5075828;28;20496;-88
2022/04/17 08:24:20;;;;;;;7.00;3.90;;;20.20;1.00;;;;;;5057972;28;20861;-85
2022/04/17 08:26:46;;;;;;;5.23;3.17;;;21.40;1.00;;;;;;5057841;28;20176;-90
2022/04/17 08:29:11;;;;;;;3.70;2.30;;;19.10;1.00;;;;;;5075558;28;20177;-83
2022/04/17 08:31:37;;;;;;;4.27;3.10;;;19.50;1.00;;;;;;5075862;28;20187;-91
2022/04/17 08:34:03;;;;;;;3.97;2.70;;;20.30;1.00;;;;;;5075737;28;20189;-87
2022/04/17 08:36:34;;;;;;;4.80;2.80;;;21.00;1.00;;;;;;5075058;28;20208;-83
2022/04/17 08:39:00;;;;;;;3.87;3.00;;;18.80;1.00;;;;;;5075183;28;20266;-86
2022/04/17 08:41:26;;;;;;;6.03;2.97;;;20.50;1.00;;;;;;5075337;28;20496;-85
2022/04/17 08:43:52;;;;;;;5.17;2.40;;;19.60;1.00;;;;;;5075538;28;20175;-90
2022/04/17 08:46:18;;;;;;;4.27;2.70;;;20.10;1.00;;;;;;5054005;28;20559;-91
2022/04/17 08:48:44;;;;;;;3.90;2.10;;;20.80;1.00;;;;;;5055043;28;20187;-87
2022/04/17 08:51:09;;;;;;;2.73;2.00;;;20.90;1.00;;;;;;5055051;28;20268;-84
2022/04/17 08:53:36;;;;;;;3.53;1.80;;;20.40;1.00;;;;;;5055486;28;20181;-83
2022/04/17 08:56:05;;;;;;;2.05;1.48;;;19.80;1.00;;;;;;5055327;28;20900;-86
2022/04/17 08:58:31;;;;;;;5.07;1.73;;;20.50;1.00;;;;;;5055013;28;20189;-84
2022/04/17 09:00:56;;;;;;;3.87;1.90;;;20.90;1.00;;;;;;5054955;28;20424;-82
2022/04/17 09:03:23;;;;;;;2.97;2.10;;;20.80;1.00;;;;;;5054711;28;20432;-84
2022/04/17 09:05:48;;;;;;;3.90;2.50;;;21.10;1.00;;;;;;5054619;28;20188;-85
2022/04/17 09:08:21;;;;;;;1.40;1.07;;;22.60;1.00;;;;;;5053657;28;20515;-83
2022/04/17 09:10:58;;;;;;;3.80;2.40;;;21.50;1.00;;;;;;5054935;28;20190;-81
2022/04/17 09:13:34;;;;;;;4.43;3.30;;;20.60;1.00;;;;;;5054599;28;20416;-83
2022/04/17 09:16:03;;;;;;;2.73;2.30;;;21.40;1.00;;;;;;5054580;28;20415;-83
2022/04/17 09:18:31;;;;;;;1.70;0.83;;;20.90;1.00;;;;;;5043655;28;20441;-85
2022/04/17 09:20:57;;;;;;;1.60;0.40;;;21.50;1.00;;;;;;5050019;28;20460;-91
2022/04/17 09:23:40;;;;;;;2.60;0.67;;;20.50;1.00;;;;;;5056006;28;20493;-84
2022/04/17 09:26:07;;;;;;;1.17;0.30;;;20.30;1.00;;;;;;5053529;28;20420;-86
2022/04/17 09:28:37;;;;;;;0.93;0.40;;;21.50;1.00;;;;;;5048581;28;20424;-85
2022/04/17 09:31:10;;;;;;;1.67;0.40;;;19.70;1.00;;;;;;5036651;28;20990;-83
2022/04/17 09:33:37;;;;;;;1.17;0.73;;;19.90;1.00;;;;;;5046438;28;20778;-86
2022/04/17 09:36:03;;;;;;;0.93;0.40;;;20.00;1.00;;;;;;5034669;28;20750;-90
2022/04/17 09:38:33;;;;;;;1.40;0.43;;;20.70;1.00;;;;;;5035627;28;20421;-84
2022/04/17 09:41:07;;;;;;;1.17;0.50;;;20.20;1.00;;;;;;5034266;28;20771;-85
2022/04/17 09:43:35;;;;;;;1.43;0.50;;;20.70;1.00;;;;;;5034442;28;20806;-83
2022/04/17 09:46:03;;;;;;;1.07;0.77;;;21.50;1.00;;;;;;5054768;28;21018;-82
2022/04/17 09:48:33;;;;;;;1.30;0.50;;;21.30;1.00;;;;;;5054271;28;20788;-84
2022/04/17 09:51:00;;;;;;;1.10;0.40;;;21.00;1.00;;;;;;5055574;28;20770;-82
2022/04/17 09:53:57;;;;;;;1.30;0.50;;;21.30;1.00;;;;;;5072847;28;20431;-82
2022/04/17 09:56:33;;;;;;;1.67;0.80;;;21.70;1.00;;;;;;5054138;28;20458;-82
2022/04/17 09:59:00;;;;;;;1.60;0.70;;;21.10;1.00;;;;;;5053956;28;20408;-82
2022/04/17 10:01:27;;;;;;;1.33;0.53;;;21.50;1.00;;;;;;5035945;28;20507;-83
2022/04/17 10:03:54;;;;;;;2.30;0.67;;;22.30;1.00;;;;;;5049380;28;20508;-86
2022/04/17 10:06:21;;;;;;;1.20;1.00;;;22.40;1.00;;;;;;5073615;28;20418;-82
2022/04/17 10:08:47;;;;;;;1.77;1.03;;;21.40;1.00;;;;;;5073904;28;20423;-83
2022/04/17 10:11:13;;;;;;;1.37;0.60;;;20.90;1.00;;;;;;5073966;28;20415;-83
2022/04/17 10:13:40;;;;;;;2.17;1.20;;;21.70;1.00;;;;;;5073801;28;20437;-89
2022/04/17 10:16:08;;;;;;;3.30;1.80;;;22.60;1.00;;;;;;5073716;28;20423;-84
2022/04/17 10:18:35;;;;;;;2.27;1.20;;;22.40;1.00;;;;;;5057743;28;20489;-84
2022/04/17 10:21:03;;;;;;;1.70;0.73;;;22.00;1.00;;;;;;5037178;28;20432;-83
2022/04/17 10:23:30;;;;;;;1.20;0.87;;;22.20;1.00;;;;;;5063154;28;20473;-82
2022/04/17 10:26:01;;;;;;;1.43;0.37;;;23.30;1.00;;;;;;5073199;28;20411;-86
2022/04/17 10:28:29;;;;;;;2.20;0.60;;;21.40;1.00;;;;;;5047687;28;20432;-84
2022/04/17 10:31:17;;;;;;;1.27;0.50;;;22.50;1.00;;;;;;5052977;28;20420;-85
2022/04/17 10:33:57;;;;;;;1.97;0.70;;;22.30;1.00;;;;;;5035648;28;20532;-84
2022/04/17 10:36:35;;;;;;;3.10;1.13;;;21.40;1.00;;;;;;5057341;28;20509;-82
2022/04/17 10:39:14;;;;;;;1.20;0.70;;;22.40;1.00;;;;;;5053341;28;20853;-83
2022/04/17 10:41:41;;;;;;;2.20;0.47;;;22.80;1.00;;;;;;5072908;28;20407;-83
2022/04/17 10:44:12;;;;;;;1.00;0.30;;;21.80;1.00;;;;;;5054101;28;20756;-83
2022/04/17 10:47:08;;;;;;;1.80;1.30;;;22.80;1.00;;;;;;5072943;28;20415;-83
2022/04/17 10:49:52;;;;;;;1.60;0.83;;;21.90;1.00;;;;;;5070831;28;20466;-83
2022/04/17 10:52:31;;;;;;;1.07;0.57;;;22.10;1.00;;;;;;5069944;28;20430;-86
2022/04/17 10:55:23;;;;;;;1.13;0.30;;;21.50;1.00;;;;;;5066259;28;20410;-83
2022/04/17 10:57:50;;;;;;;1.37;0.50;;;20.90;1.00;;;;;;5066634;28;20475;-85
2022/04/17 11:00:28;;;;;;;1.57;0.50;;;22.10;1.00;;;;;;5072606;28;20866;-86
2022/04/17 11:02:58;;;;;;;1.17;0.40;;;22.00;1.00;;;;;;5054792;28;20538;-83
2022/04/17 11:08:21;;;;;;;1.43;1.03;;;21.80;1.00;;;;;;5073268;28;20782;-80
2022/04/17 11:10:52;;;;;;;2.80;1.90;;;22.20;1.00;;;;;;5072944;28;20424;-85
2022/04/17 11:13:18;;;;;;;2.37;1.70;;;22.90;1.00;;;;;;5072887;28;20430;-86
2022/04/17 11:15:52;;;;;;;3.37;2.47;;;22.30;1.00;;;;;;5054616;28;20431;-82
2022/04/17 11:18:23;;;;;;;1.13;0.93;;;22.50;1.00;;;;;;5072554;28;20201;-85
2022/04/17 11:20:52;;;;;;;2.43;0.83;;;23.10;1.00;;;;;;5072226;28;20439;-85
2022/04/17 11:23:49;;;;;;;4.00;0.80;;;22.90;1.00;;;;;;5072220;28;20431;-81
2022/04/17 11:26:15;;;;;;;1.80;0.40;;;22.60;1.00;;;;;;5072332;28;20408;-83
2022/04/17 11:28:41;;;;;;;0.50;0.20;;;23.20;1.00;;;;;;5072221;28;20839;-82
2022/04/17 11:31:07;;;;;;;0.90;0.30;;;22.90;1.00;;;;;;5072264;28;20407;-81
2022/04/17 11:33:32;;;;;;;2.70;0.73;;;22.70;1.00;;;;;;5072248;28;20200;-81
2022/04/17 11:35:58;;;;;;;1.03;0.57;;;21.40;1.00;;;;;;5071873;28;20418;-81
2022/04/17 11:38:24;;;;;;;1.10;0.40;;;22.10;1.00;;;;;;5071712;28;20184;-82
2022/04/17 11:40:52;;;;;;;2.30;0.90;;;21.00;1.00;;;;;;5054369;28;20423;-82
2022/04/17 11:43:19;;;;;;;1.33;0.30;;;22.50;1.00;;;;;;5057728;28;20173;-82
2022/04/17 11:45:46;;;;;;;1.20;0.83;;;22.60;1.00;;;;;;5057539;28;20490;-82
2022/04/17 11:48:14;;;;;;;1.57;0.60;;;22.50;1.00;;;;;;5075373;28;20771;-82
2022/04/17 11:50:54;;;;;;;1.20;0.80;;;22.90;1.00;;;;;;5074959;28;20923;-82
2022/04/17 11:53:20;;;;;;;2.00;0.43;;;23.10;1.00;;;;;;5073741;28;20407;-85
2022/04/17 11:55:46;;;;;;;2.20;0.53;;;22.80;1.00;;;;;;5075250;28;20411;-82
2022/04/17 11:58:28;;;;;;;1.57;0.50;;;21.80;1.00;;;;;;5075186;28;20205;-82
2022/04/17 12:01:03;;;;;;;1.67;0.70;;;21.90;1.00;;;;;;5072606;28;20411;-82
2022/04/17 12:03:36;;;;;;;2.03;0.47;;;22.00;1.00;;;;;;5075320;28;20920;-82
2022/04/17 12:06:03;;;;;;;1.17;0.57;;;22.30;1.00;;;;;;5074899;28;20402;-83
2022/04/17 12:08:34;;;;;;;1.80;0.80;;;22.50;1.00;;;;;;5057085;28;20504;-86
2022/04/17 12:10:59;;;;;;;1.57;0.73;;;22.80;1.00;;;;;;5056997;28;20496;-82
2022/04/17 12:13:28;;;;;;;1.00;0.30;;;23.10;1.00;;;;;;5074800;28;20795;-82
2022/04/17 12:16:06;;;;;;;1.47;0.47;;;21.90;1.00;;;;;;5072184;28;20176;-82
2022/04/17 12:18:32;;;;;;;1.37;0.43;;;22.70;1.00;;;;;;5056699;28;20431;-82
2022/04/17 12:21:03;;;;;;;1.00;0.37;;;21.90;1.00;;;;;;5074364;28;20406;-83
2022/04/17 12:23:29;;;;;;;1.27;0.40;;;22.10;1.00;;;;;;5074619;28;20197;-81
2022/04/17 12:25:56;;;;;;;1.10;0.50;;;22.40;1.00;;;;;;5072056;28;20422;-81
2022/04/17 12:28:22;;;;;;;0.80;0.47;;;22.90;1.00;;;;;;5074635;28;20415;-83
2022/04/17 12:30:48;;;;;;;3.23;0.40;;;22.90;1.00;;;;;;5074530;28;20415;-82
2022/04/17 12:33:28;;;;;;;1.20;0.50;;;22.20;1.00;;;;;;5072695;28;20412;-83
2022/04/17 12:36:07;;;;;;;1.50;0.47;;;22.20;1.00;;;;;;5071866;28;20411;-82
2022/04/17 12:38:35;;;;;;;1.27;0.60;;;22.40;1.00;;;;;;5073973;28;20501;-82
2022/04/17 12:41:00;;;;;;;2.50;0.40;;;22.60;1.00;;;;;;5074064;28;20927;-82
2022/04/17 12:43:30;;;;;;;0.97;0.33;;;22.40;1.00;;;;;;5074371;28;20416;-82
2022/04/17 12:46:01;;;;;;;1.40;0.30;;;22.10;1.00;;;;;;5071544;28;20622;-82
2022/04/17 12:48:31;;;;;;;1.37;0.30;;;22.20;1.00;;;;;;5074306;28;20411;-82
2022/04/17 12:51:00;;;;;;;1.60;0.20;;;21.60;1.00;;;;;;5071251;28;20403;-82
2022/04/17 12:53:41;;;;;;;1.00;0.43;;;21.30;1.00;;;;;;5055337;28;20439;-83
2022/04/17 12:56:08;;;;;;;1.53;0.40;;;22.20;1.00;;;;;;5072763;28;20407;-81
2022/04/17 12:58:57;;;;;;;1.20;0.50;;;21.90;1.00;;;;;;5073957;28;20771;-83
2022/04/17 13:01:31;;;;;;;2.33;1.30;;;21.00;1.00;;;;;;5072331;28;20407;-83